Terminal Aerodrome Forecast
Issued by NWS Cleveland, OH

Home | Current Version | Previous Version | Graphics & Text | Print | Product List | Glossary On
Versions: 1 2 3 4 5 6 7 8 9 10 11 12 13 14
000
FTUS41 KCLE 291735
TAFCAK
TAF
KCAK 291735Z 2918/3018 24006KT P6SM SCT040 BKN250
     FM292300 24008KT P6SM VCTS SCT050CB BKN250
     FM300300 26006KT P6SM BKN040 OVC120
     FM301400 28010KT P6SM SCT040=

USA.gov is the U.S. government's official web portal to all federal, state and local government web resources and services.